Terminal Aerodrome Forecast
Issued by NWS Brownsville, TX

Home | Current Version | Previous Version | Text Only | Print | Product List | Glossary On
Versions: 1 2 3 4 5 6 7 8 9 10 11 12 13 14 15 16 17 18 19 20 21 22 23 24
000
FTUS44 KBRO 221400 AAD
TAFBRO
TAF AMD
KBRO 221453Z 2215/2312 20007KT P6SM VCSH SCT022 OVC100
      TEMPO 2215/2217 BKN022
     FM221700 06012KT P6SM VCSH SCT030 BKN060
     FM230100 07006KT P6SM SCT030 BKN060
     FM230600 04005KT P6SM FEW150=

USA.gov is the U.S. government's official web portal to all federal, state and local government web resources and services.